sensor_id;sensor_type;location;lat;lon;timestamp;temperature;humidity
74488;DHT22;63019;51.080;13.642;2022-10-31T00:00:00;11.90;97.50
74488;DHT22;63019;51.080;13.642;2022-10-31T00:01:13;11.90;97.40
74488;DHT22;63019;51.080;13.642;2022-10-31T00:02:15;11.90;97.60
74488;DHT22;63019;51.080;13.642;2022-10-31T00:03:18;11.80;97.60
74488;DHT22;63019;51.080;13.642;2022-10-31T00:04:19;11.80;97.70
74488;DHT22;63019;51.080;13.642;2022-10-31T00:05:21;11.80;97.60
74488;DHT22;63019;51.080;13.642;2022-10-31T00:06:23;11.90;97.70
74488;DHT22;63019;51.080;13.642;2022-10-31T00:07:25;11.90;97.90
74488;DHT22;63019;51.080;13.642;2022-10-31T00:08:27;11.90;97.60
74488;DHT22;63019;51.080;13.642;2022-10-31T00:09:29;11.90;97.60
74488;DHT22;63019;51.080;13.642;2022-10-31T00:10:30;11.90;97.60
74488;DHT22;63019;51.080;13.642;2022-10-31T00:11:32;11.90;97.70
74488;DHT22;63019;51.080;13.642;2022-10-31T00:12:34;11.80;97.60
74488;DHT22;63019;51.080;13.642;2022-10-31T00:13:35;11.80;97.70
74488;DHT22;63019;51.080;13.642;2022-10-31T00:14:37;11.90;97.70
74488;DHT22;63019;51.080;13.642;2022-10-31T00:15:40;11.80;97.70
74488;DHT22;63019;51.080;13.642;2022-10-31T00:16:42;11.80;97.70
74488;DHT22;63019;51.080;13.642;2022-10-31T00:17:43;11.80;97.70
74488;DHT22;63019;51.080;13.642;2022-10-31T00:18:51;11.80;97.60
74488;DHT22;63019;51.080;13.642;2022-10-31T00:19:54;11.80;97.80
74488;DHT22;63019;51.080;13.642;2022-10-31T00:21:03;11.80;97.70
74488;DHT22;63019;51.080;13.642;2022-10-31T00:22:05;11.80;97.80
74488;DHT22;63019;51.080;13.642;2022-10-31T00:23:08;11.80;97.70
74488;DHT22;63019;51.080;13.642;2022-10-31T00:24:10;11.80;97.70
74488;DHT22;63019;51.080;13.642;2022-10-31T00:25:12;11.80;97.70
74488;DHT22;63019;51.080;13.642;2022-10-31T00:26:14;11.70;97.70
74488;DHT22;63019;51.080;13.642;2022-10-31T00:27:16;11.70;97.70
74488;DHT22;63019;51.080;13.642;2022-10-31T00:28:18;11.70;97.80
74488;DHT22;63019;51.080;13.642;2022-10-31T00:29:24;11.70;97.80
74488;DHT22;63019;51.080;13.642;2022-10-31T00:30:26;11.80;97.70
74488;DHT22;63019;51.080;13.642;2022-10-31T00:31:28;11.70;97.70
74488;DHT22;63019;51.080;13.642;2022-10-31T00:32:30;11.70;97.70
74488;DHT22;63019;51.080;13.642;2022-10-31T00:33:33;11.70;97.70
74488;DHT22;63019;51.080;13.642;2022-10-31T00:34:36;11.70;97.70
74488;DHT22;63019;51.080;13.642;2022-10-31T00:35:37;11.70;97.70
74488;DHT22;63019;51.080;13.642;2022-10-31T00:36:39;11.70;97.60
74488;DHT22;63019;51.080;13.642;2022-10-31T00:37:41;11.70;97.60
74488;DHT22;63019;51.080;13.642;2022-10-31T00:38:43;11.70;97.50
74488;DHT22;63019;51.080;13.642;2022-10-31T00:39:45;11.70;97.70
74488;DHT22;63019;51.080;13.642;2022-10-31T00:40:46;11.70;97.60
74488;DHT22;63019;51.080;13.642;2022-10-31T00:41:48;11.70;97.60
74488;DHT22;63019;51.080;13.642;2022-10-31T00:42:50;11.70;97.60
74488;DHT22;63019;51.080;13.642;2022-10-31T00:43:52;11.60;97.60
74488;DHT22;63019;51.080;13.642;2022-10-31T00:44:53;11.60;97.70
74488;DHT22;63019;51.080;13.642;2022-10-31T00:45:55;11.60;97.60
74488;DHT22;63019;51.080;13.642;2022-10-31T00:46:57;11.60;97.60
74488;DHT22;63019;51.080;13.642;2022-10-31T00:47:58;11.60;97.70
74488;DHT22;63019;51.080;13.642;2022-10-31T00:49:00;11.60;97.70
74488;DHT22;63019;51.080;13.642;2022-10-31T00:50:04;11.50;97.60
74488;DHT22;63019;51.080;13.642;2022-10-31T00:51:05;11.50;97.80
74488;DHT22;63019;51.080;13.642;2022-10-31T00:52:07;11.50;97.70
74488;DHT22;63019;51.080;13.642;2022-10-31T00:53:09;11.50;97.70
74488;DHT22;63019;51.080;13.642;2022-10-31T00:54:10;11.50;97.70
74488;DHT22;63019;51.080;13.642;2022-10-31T00:55:12;11.40;97.60
74488;DHT22;63019;51.080;13.642;2022-10-31T00:56:14;11.40;97.60
74488;DHT22;63019;51.080;13.642;2022-10-31T00:57:16;11.40;97.50
74488;DHT22;63019;51.080;13.642;2022-10-31T00:58:18;11.40;97.70
74488;DHT22;63019;51.080;13.642;2022-10-31T00:59:20;11.40;97.60
74488;DHT22;63019;51.080;13.642;2022-10-31T01:00:22;11.40;97.60
74488;DHT22;63019;51.080;13.642;2022-10-31T01:01:24;11.40;97.50
74488;DHT22;63019;51.080;13.642;2022-10-31T01:02:26;11.40;97.60
74488;DHT22;63019;51.080;13.642;2022-10-31T01:03:31;11.40;97.50
74488;DHT22;63019;51.080;13.642;2022-10-31T01:04:33;11.30;97.40
74488;DHT22;63019;51.080;13.642;2022-10-31T01:05:34;11.30;97.40
74488;DHT22;63019;51.080;13.642;2022-10-31T01:06:36;11.30;97.40
74488;DHT22;63019;51.080;13.642;2022-10-31T01:07:42;11.30;97.50
74488;DHT22;63019;51.080;13.642;2022-10-31T01:08:43;11.30;97.40
74488;DHT22;63019;51.080;13.642;2022-10-31T01:09:45;11.30;97.30
74488;DHT22;63019;51.080;13.642;2022-10-31T01:11:01;11.30;97.30
74488;DHT22;63019;51.080;13.642;2022-10-31T01:12:03;11.20;97.30
74488;DHT22;63019;51.080;13.642;2022-10-31T01:13:05;11.20;97.40
74488;DHT22;63019;51.080;13.642;2022-10-31T01:14:08;11.20;97.40
74488;DHT22;63019;51.080;13.642;2022-10-31T01:15:13;11.20;97.60
74488;DHT22;63019;51.080;13.642;2022-10-31T01:16:17;11.20;97.60
74488;DHT22;63019;51.080;13.642;2022-10-31T01:17:21;11.30;97.60
74488;DHT22;63019;51.080;13.642;2022-10-31T01:18:23;11.20;97.50
74488;DHT22;63019;51.080;13.642;2022-10-31T01:19:25;11.20;97.60
74488;DHT22;63019;51.080;13.642;2022-10-31T01:20:27;11.20;97.60
74488;DHT22;63019;51.080;13.642;2022-10-31T01:21:29;11.30;97.60
74488;DHT22;63019;51.080;13.642;2022-10-31T01:22:31;11.30;97.60
74488;DHT22;63019;51.080;13.642;2022-10-31T01:23:33;11.30;97.60
74488;DHT22;63019;51.080;13.642;2022-10-31T01:24:35;11.30;97.60
74488;DHT22;63019;51.080;13.642;2022-10-31T01:25:37;11.40;97.60
74488;DHT22;63019;51.080;13.642;2022-10-31T01:26:39;11.30;97.50
74488;DHT22;63019;51.080;13.642;2022-10-31T01:27:41;11.30;97.50
74488;DHT22;63019;51.080;13.642;2022-10-31T01:28:51;11.30;97.50
74488;DHT22;63019;51.080;13.642;2022-10-31T01:29:53;11.30;97.60
74488;DHT22;63019;51.080;13.642;2022-10-31T01:30:55;11.30;97.60
74488;DHT22;63019;51.080;13.642;2022-10-31T01:31:56;11.30;97.60
74488;DHT22;63019;51.080;13.642;2022-10-31T01:32:58;11.20;97.50
74488;DHT22;63019;51.080;13.642;2022-10-31T01:34:00;11.30;97.60
74488;DHT22;63019;51.080;13.642;2022-10-31T01:35:02;11.20;97.70
74488;DHT22;63019;51.080;13.642;2022-10-31T01:37:26;11.20;97.80
74488;DHT22;63019;51.080;13.642;2022-10-31T01:38:28;11.10;97.80
74488;DHT22;63019;51.080;13.642;2022-10-31T01:39:31;11.10;97.80
74488;DHT22;63019;51.080;13.642;2022-10-31T01:40:32;11.10;97.70
74488;DHT22;63019;51.080;13.642;2022-10-31T01:41:36;11.10;97.70
74488;DHT22;63019;51.080;13.642;2022-10-31T01:42:38;11.10;97.80
74488;DHT22;63019;51.080;13.642;2022-10-31T01:45:00;11.10;97.70
74488;DHT22;63019;51.080;13.642;2022-10-31T01:46:02;11.10;97.80
74488;DHT22;63019;51.080;13.642;2022-10-31T01:47:30;11.10;97.80
74488;DHT22;63019;51.080;13.642;2022-10-31T01:48:32;11.00;97.50
74488;DHT22;63019;51.080;13.642;2022-10-31T01:49:51;11.00;97.60
74488;DHT22;63019;51.080;13.642;2022-10-31T01:50:55;10.90;97.80
74488;DHT22;63019;51.080;13.642;2022-10-31T01:52:45;10.90;97.70
74488;DHT22;63019;51.080;13.642;2022-10-31T01:53:23;10.90;97.70
74488;DHT22;63019;51.080;13.642;2022-10-31T01:54:32;10.90;97.70
74488;DHT22;63019;51.080;13.642;2022-10-31T01:55:38;10.80;97.60
74488;DHT22;63019;51.080;13.642;2022-10-31T01:56:43;10.80;97.60
74488;DHT22;63019;51.080;13.642;2022-10-31T01:57:49;10.80;97.60
74488;DHT22;63019;51.080;13.642;2022-10-31T01:58:54;10.80;97.60
74488;DHT22;63019;51.080;13.642;2022-10-31T02:00:01;10.80;97.70
74488;DHT22;63019;51.080;13.642;2022-10-31T02:01:04;10.80;97.70
74488;DHT22;63019;51.080;13.642;2022-10-31T02:02:09;10.70;97.70
74488;DHT22;63019;51.080;13.642;2022-10-31T02:03:11;10.70;97.50
74488;DHT22;63019;51.080;13.642;2022-10-31T02:04:14;10.70;97.50
74488;DHT22;63019;51.080;13.642;2022-10-31T02:05:18;10.70;97.50
74488;DHT22;63019;51.080;13.642;2022-10-31T02:08:57;10.70;98.00
74488;DHT22;63019;51.080;13.642;2022-10-31T02:10:02;10.70;97.90
74488;DHT22;63019;51.080;13.642;2022-10-31T02:11:04;10.70;97.80
74488;DHT22;63019;51.080;13.642;2022-10-31T02:12:09;10.70;97.80
74488;DHT22;63019;51.080;13.642;2022-10-31T02:13:11;10.70;97.70
74488;DHT22;63019;51.080;13.642;2022-10-31T02:14:15;10.70;97.70
74488;DHT22;63019;51.080;13.642;2022-10-31T02:15:17;10.70;97.80
74488;DHT22;63019;51.080;13.642;2022-10-31T02:16:19;10.70;97.80
74488;DHT22;63019;51.080;13.642;2022-10-31T02:17:21;10.70;98.00
74488;DHT22;63019;51.080;13.642;2022-10-31T02:18:25;10.70;97.90
74488;DHT22;63019;51.080;13.642;2022-10-31T02:19:51;10.70;97.80
74488;DHT22;63019;51.080;13.642;2022-10-31T02:20:58;10.70;98.00
74488;DHT22;63019;51.080;13.642;2022-10-31T02:22:20;10.70;98.00
74488;DHT22;63019;51.080;13.642;2022-10-31T02:24:46;10.60;97.80
74488;DHT22;63019;51.080;13.642;2022-10-31T02:28:38;10.60;98.00
74488;DHT22;63019;51.080;13.642;2022-10-31T02:30:00;10.60;97.70
74488;DHT22;63019;51.080;13.642;2022-10-31T02:31:20;10.50;97.80
74488;DHT22;63019;51.080;13.642;2022-10-31T02:32:38;10.50;98.10
74488;DHT22;63019;51.080;13.642;2022-10-31T02:33:51;10.50;98.20
74488;DHT22;63019;51.080;13.642;2022-10-31T02:35:06;10.50;98.30
74488;DHT22;63019;51.080;13.642;2022-10-31T02:36:25;10.50;98.10
74488;DHT22;63019;51.080;13.642;2022-10-31T02:37:38;10.50;98.20
74488;DHT22;63019;51.080;13.642;2022-10-31T02:40:30;10.40;98.20
74488;DHT22;63019;51.080;13.642;2022-10-31T02:42:13;10.40;98.50
74488;DHT22;63019;51.080;13.642;2022-10-31T02:43:21;10.50;98.50
74488;DHT22;63019;51.080;13.642;2022-10-31T02:44:29;10.50;98.30
74488;DHT22;63019;51.080;13.642;2022-10-31T02:48:10;10.40;98.40
74488;DHT22;63019;51.080;13.642;2022-10-31T02:49:32;10.40;98.20
74488;DHT22;63019;51.080;13.642;2022-10-31T02:50:39;10.50;98.40
74488;DHT22;63019;51.080;13.642;2022-10-31T02:51:43;10.50;98.00
74488;DHT22;63019;51.080;13.642;2022-10-31T02:52:51;10.50;98.00
74488;DHT22;63019;51.080;13.642;2022-10-31T02:53:53;10.50;98.00
74488;DHT22;63019;51.080;13.642;2022-10-31T02:54:55;10.50;98.10
74488;DHT22;63019;51.080;13.642;2022-10-31T02:56:06;10.50;98.00
74488;DHT22;63019;51.080;13.642;2022-10-31T02:57:10;10.50;98.10
74488;DHT22;63019;51.080;13.642;2022-10-31T02:58:15;10.50;98.10
74488;DHT22;63019;51.080;13.642;2022-10-31T02:59:20;10.40;98.10
74488;DHT22;63019;51.080;13.642;2022-10-31T03:00:23;10.50;98.10
74488;DHT22;63019;51.080;13.642;2022-10-31T03:06:30;10.50;98.10
74488;DHT22;63019;51.080;13.642;2022-10-31T03:07:47;10.50;98.20
74488;DHT22;63019;51.080;13.642;2022-10-31T03:09:27;10.40;98.20
74488;DHT22;63019;51.080;13.642;2022-10-31T03:13:26;10.50;98.20
74488;DHT22;63019;51.080;13.642;2022-10-31T03:14:43;10.50;98.30
74488;DHT22;63019;51.080;13.642;2022-10-31T03:15:51;10.50;98.20
74488;DHT22;63019;51.080;13.642;2022-10-31T03:16:56;10.50;98.10
74488;DHT22;63019;51.080;13.642;2022-10-31T03:18:09;10.50;98.20
74488;DHT22;63019;51.080;13.642;2022-10-31T03:20:23;10.50;98.10
74488;DHT22;63019;51.080;13.642;2022-10-31T03:21:32;10.50;98.00
74488;DHT22;63019;51.080;13.642;2022-10-31T03:22:38;10.50;98.10
74488;DHT22;63019;51.080;13.642;2022-10-31T03:23:44;10.50;98.20
74488;DHT22;63019;51.080;13.642;2022-10-31T03:24:47;10.50;98.20
74488;DHT22;63019;51.080;13.642;2022-10-31T03:25:53;10.50;98.20
74488;DHT22;63019;51.080;13.642;2022-10-31T03:26:57;10.50;98.20
74488;DHT22;63019;51.080;13.642;2022-10-31T03:28:02;10.50;98.10
74488;DHT22;63019;51.080;13.642;2022-10-31T03:29:08;10.50;98.10
74488;DHT22;63019;51.080;13.642;2022-10-31T03:30:13;10.50;98.00
74488;DHT22;63019;51.080;13.642;2022-10-31T03:31:18;10.50;98.10
74488;DHT22;63019;51.080;13.642;2022-10-31T03:33:48;10.50;98.10
74488;DHT22;63019;51.080;13.642;2022-10-31T03:34:51;10.50;98.00
74488;DHT22;63019;51.080;13.642;2022-10-31T03:35:57;10.50;97.90
74488;DHT22;63019;51.080;13.642;2022-10-31T03:37:02;10.40;97.80
74488;DHT22;63019;51.080;13.642;2022-10-31T03:38:05;10.40;97.90
74488;DHT22;63019;51.080;13.642;2022-10-31T03:39:11;10.40;97.90
74488;DHT22;63019;51.080;13.642;2022-10-31T03:40:15;10.30;97.80
74488;DHT22;63019;51.080;13.642;2022-10-31T03:41:21;10.30;97.80
74488;DHT22;63019;51.080;13.642;2022-10-31T03:42:26;10.30;97.90
74488;DHT22;63019;51.080;13.642;2022-10-31T03:43:35;10.20;97.80
74488;DHT22;63019;51.080;13.642;2022-10-31T03:44:38;10.20;97.90
74488;DHT22;63019;51.080;13.642;2022-10-31T03:45:45;10.20;97.90
74488;DHT22;63019;51.080;13.642;2022-10-31T03:46:48;10.10;97.90
74488;DHT22;63019;51.080;13.642;2022-10-31T03:47:50;10.20;98.10
74488;DHT22;63019;51.080;13.642;2022-10-31T03:48:53;10.20;98.10
74488;DHT22;63019;51.080;13.642;2022-10-31T03:49:54;10.20;97.90
74488;DHT22;63019;51.080;13.642;2022-10-31T03:52:43;10.10;98.30
74488;DHT22;63019;51.080;13.642;2022-10-31T03:54:57;10.10;98.20
74488;DHT22;63019;51.080;13.642;2022-10-31T03:57:41;10.10;98.40
74488;DHT22;63019;51.080;13.642;2022-10-31T03:59:00;10.10;98.30
74488;DHT22;63019;51.080;13.642;2022-10-31T04:00:08;10.20;98.40
74488;DHT22;63019;51.080;13.642;2022-10-31T04:01:12;10.10;98.40
74488;DHT22;63019;51.080;13.642;2022-10-31T04:02:19;10.10;98.30
74488;DHT22;63019;51.080;13.642;2022-10-31T04:03:26;10.10;98.40
74488;DHT22;63019;51.080;13.642;2022-10-31T04:04:29;10.10;98.30
74488;DHT22;63019;51.080;13.642;2022-10-31T04:05:33;10.10;98.30
74488;DHT22;63019;51.080;13.642;2022-10-31T04:06:38;10.10;98.40
74488;DHT22;63019;51.080;13.642;2022-10-31T04:07:44;10.10;98.40
74488;DHT22;63019;51.080;13.642;2022-10-31T04:08:57;10.10;98.40
74488;DHT22;63019;51.080;13.642;2022-10-31T04:10:03;10.10;98.30
74488;DHT22;63019;51.080;13.642;2022-10-31T04:11:08;10.10;98.30
74488;DHT22;63019;51.080;13.642;2022-10-31T04:12:14;10.20;98.30
74488;DHT22;63019;51.080;13.642;2022-10-31T04:13:27;10.10;98.30
74488;DHT22;63019;51.080;13.642;2022-10-31T04:14:31;10.20;98.30
74488;DHT22;63019;51.080;13.642;2022-10-31T04:15:35;10.20;98.30
74488;DHT22;63019;51.080;13.642;2022-10-31T04:16:43;10.20;98.30
74488;DHT22;63019;51.080;13.642;2022-10-31T04:17:46;10.10;98.30
74488;DHT22;63019;51.080;13.642;2022-10-31T04:18:49;10.10;98.20
74488;DHT22;63019;51.080;13.642;2022-10-31T04:19:51;10.10;98.30
74488;DHT22;63019;51.080;13.642;2022-10-31T04:21:07;10.20;98.20
74488;DHT22;63019;51.080;13.642;2022-10-31T04:22:09;10.20;98.30
74488;DHT22;63019;51.080;13.642;2022-10-31T04:23:20;10.20;98.10
74488;DHT22;63019;51.080;13.642;2022-10-31T04:24:22;10.20;98.10
74488;DHT22;63019;51.080;13.642;2022-10-31T04:25:23;10.10;98.00
74488;DHT22;63019;51.080;13.642;2022-10-31T04:26:25;10.10;98.10
74488;DHT22;63019;51.080;13.642;2022-10-31T04:27:27;10.10;98.00
74488;DHT22;63019;51.080;13.642;2022-10-31T04:28:29;10.00;98.00
74488;DHT22;63019;51.080;13.642;2022-10-31T04:29:31;10.00;98.10
74488;DHT22;63019;51.080;13.642;2022-10-31T04:30:33;10.00;98.10
74488;DHT22;63019;51.080;13.642;2022-10-31T04:31:35;10.00;98.20
74488;DHT22;63019;51.080;13.642;2022-10-31T04:32:37;10.00;98.10
74488;DHT22;63019;51.080;13.642;2022-10-31T04:33:39;10.00;98.10
74488;DHT22;63019;51.080;13.642;2022-10-31T04:34:41;10.00;98.10
74488;DHT22;63019;51.080;13.642;2022-10-31T04:35:43;10.00;98.20
74488;DHT22;63019;51.080;13.642;2022-10-31T04:36:45;10.00;98.10
74488;DHT22;63019;51.080;13.642;2022-10-31T04:37:47;10.00;98.20
74488;DHT22;63019;51.080;13.642;2022-10-31T04:38:49;9.90;98.70
74488;DHT22;63019;51.080;13.642;2022-10-31T04:39:50;10.00;98.20
74488;DHT22;63019;51.080;13.642;2022-10-31T04:40:53;10.00;98.10
74488;DHT22;63019;51.080;13.642;2022-10-31T04:41:55;9.90;98.60
74488;DHT22;63019;51.080;13.642;2022-10-31T04:42:57;10.00;98.10
74488;DHT22;63019;51.080;13.642;2022-10-31T04:43:59;10.00;98.20
74488;DHT22;63019;51.080;13.642;2022-10-31T04:45:01;10.00;98.10
74488;DHT22;63019;51.080;13.642;2022-10-31T04:46:03;10.00;98.10
74488;DHT22;63019;51.080;13.642;2022-10-31T04:47:05;10.00;98.10
74488;DHT22;63019;51.080;13.642;2022-10-31T04:48:07;10.00;98.00
74488;DHT22;63019;51.080;13.642;2022-10-31T04:49:09;10.00;98.10
74488;DHT22;63019;51.080;13.642;2022-10-31T04:50:11;10.00;98.00
74488;DHT22;63019;51.080;13.642;2022-10-31T04:51:12;10.00;98.00
74488;DHT22;63019;51.080;13.642;2022-10-31T04:52:14;10.00;97.90
74488;DHT22;63019;51.080;13.642;2022-10-31T04:53:16;10.00;97.90
74488;DHT22;63019;51.080;13.642;2022-10-31T04:54:17;10.00;97.90
74488;DHT22;63019;51.080;13.642;2022-10-31T04:55:19;10.00;97.90
74488;DHT22;63019;51.080;13.642;2022-10-31T04:56:21;9.90;98.50
74488;DHT22;63019;51.080;13.642;2022-10-31T04:57:23;9.90;98.50
74488;DHT22;63019;51.080;13.642;2022-10-31T04:58:24;9.90;98.40
74488;DHT22;63019;51.080;13.642;2022-10-31T04:59:26;9.90;98.50
74488;DHT22;63019;51.080;13.642;2022-10-31T05:00:28;9.90;98.50
74488;DHT22;63019;51.080;13.642;2022-10-31T05:01:30;9.90;98.40
74488;DHT22;63019;51.080;13.642;2022-10-31T05:02:32;9.90;98.40
74488;DHT22;63019;51.080;13.642;2022-10-31T05:03:33;9.90;98.40
74488;DHT22;63019;51.080;13.642;2022-10-31T05:04:35;9.90;98.40
74488;DHT22;63019;51.080;13.642;2022-10-31T05:05:37;9.90;98.40
74488;DHT22;63019;51.080;13.642;2022-10-31T05:06:39;9.90;98.40
74488;DHT22;63019;51.080;13.642;2022-10-31T05:07:42;9.90;98.40
74488;DHT22;63019;51.080;13.642;2022-10-31T05:08:44;9.90;98.40
74488;DHT22;63019;51.080;13.642;2022-10-31T05:09:46;9.90;98.40
74488;DHT22;63019;51.080;13.642;2022-10-31T05:10:47;9.90;98.30
74488;DHT22;63019;51.080;13.642;2022-10-31T05:11:49;9.80;98.40
74488;DHT22;63019;51.080;13.642;2022-10-31T05:12:53;9.80;98.40
74488;DHT22;63019;51.080;13.642;2022-10-31T05:13:55;9.80;98.30
74488;DHT22;63019;51.080;13.642;2022-10-31T05:14:56;9.80;98.30
74488;DHT22;63019;51.080;13.642;2022-10-31T05:15:59;9.70;98.20
74488;DHT22;63019;51.080;13.642;2022-10-31T05:17:00;9.70;98.30
74488;DHT22;63019;51.080;13.642;2022-10-31T05:18:02;9.70;98.40
74488;DHT22;63019;51.080;13.642;2022-10-31T05:19:04;9.70;98.50
74488;DHT22;63019;51.080;13.642;2022-10-31T05:20:07;9.70;98.50
74488;DHT22;63019;51.080;13.642;2022-10-31T05:21:08;9.70;98.30
74488;DHT22;63019;51.080;13.642;2022-10-31T05:22:10;9.70;98.20
74488;DHT22;63019;51.080;13.642;2022-10-31T05:23:12;9.70;98.20
74488;DHT22;63019;51.080;13.642;2022-10-31T05:24:14;9.70;98.20
74488;DHT22;63019;51.080;13.642;2022-10-31T05:25:16;9.70;98.30
74488;DHT22;63019;51.080;13.642;2022-10-31T05:26:18;9.70;98.20
74488;DHT22;63019;51.080;13.642;2022-10-31T05:27:20;9.70;98.10
74488;DHT22;63019;51.080;13.642;2022-10-31T05:28:22;9.60;98.10
74488;DHT22;63019;51.080;13.642;2022-10-31T05:29:24;9.60;98.50
74488;DHT22;63019;51.080;13.642;2022-10-31T05:30:28;9.60;98.30
74488;DHT22;63019;51.080;13.642;2022-10-31T05:31:29;9.60;98.30
74488;DHT22;63019;51.080;13.642;2022-10-31T05:32:37;9.50;98.20
74488;DHT22;63019;51.080;13.642;2022-10-31T05:33:39;9.50;98.30
74488;DHT22;63019;51.080;13.642;2022-10-31T05:34:41;9.50;98.30
74488;DHT22;63019;51.080;13.642;2022-10-31T05:35:42;9.50;98.30
74488;DHT22;63019;51.080;13.642;2022-10-31T05:36:44;9.50;98.20
74488;DHT22;63019;51.080;13.642;2022-10-31T05:37:46;9.50;98.30
74488;DHT22;63019;51.080;13.642;2022-10-31T05:38:48;9.50;98.30
74488;DHT22;63019;51.080;13.642;2022-10-31T05:39:49;9.50;98.30
74488;DHT22;63019;51.080;13.642;2022-10-31T05:40:54;9.50;98.30
74488;DHT22;63019;51.080;13.642;2022-10-31T05:41:59;9.50;98.20
74488;DHT22;63019;51.080;13.642;2022-10-31T05:43:00;9.50;98.30
74488;DHT22;63019;51.080;13.642;2022-10-31T05:44:02;9.50;98.20
74488;DHT22;63019;51.080;13.642;2022-10-31T05:45:10;9.50;98.10
74488;DHT22;63019;51.080;13.642;2022-10-31T05:46:12;9.50;98.20
74488;DHT22;63019;51.080;13.642;2022-10-31T05:47:13;9.40;98.10
74488;DHT22;63019;51.080;13.642;2022-10-31T05:48:15;9.40;98.20
74488;DHT22;63019;51.080;13.642;2022-10-31T05:49:17;9.40;98.30
74488;DHT22;63019;51.080;13.642;2022-10-31T05:50:19;9.40;98.20
74488;DHT22;63019;51.080;13.642;2022-10-31T05:51:21;9.40;98.30
74488;DHT22;63019;51.080;13.642;2022-10-31T05:52:23;9.40;98.40
74488;DHT22;63019;51.080;13.642;2022-10-31T05:53:25;9.40;98.40
74488;DHT22;63019;51.080;13.642;2022-10-31T05:54:26;9.40;98.40
74488;DHT22;63019;51.080;13.642;2022-10-31T05:55:29;9.30;98.30
74488;DHT22;63019;51.080;13.642;2022-10-31T05:56:30;9.30;98.20
74488;DHT22;63019;51.080;13.642;2022-10-31T05:57:32;9.30;98.30
74488;DHT22;63019;51.080;13.642;2022-10-31T05:58:35;9.30;98.40
74488;DHT22;63019;51.080;13.642;2022-10-31T05:59:36;9.30;98.40
74488;DHT22;63019;51.080;13.642;2022-10-31T06:00:38;9.30;98.30
74488;DHT22;63019;51.080;13.642;2022-10-31T06:01:41;9.30;98.40
74488;DHT22;63019;51.080;13.642;2022-10-31T06:02:43;9.30;98.40
74488;DHT22;63019;51.080;13.642;2022-10-31T06:03:44;9.30;98.50
74488;DHT22;63019;51.080;13.642;2022-10-31T06:04:47;9.30;98.60
74488;DHT22;63019;51.080;13.642;2022-10-31T06:05:49;9.30;98.50
74488;DHT22;63019;51.080;13.642;2022-10-31T06:06:56;9.30;98.50
74488;DHT22;63019;51.080;13.642;2022-10-31T06:07:59;9.30;98.50
74488;DHT22;63019;51.080;13.642;2022-10-31T06:09:01;9.30;98.60
74488;DHT22;63019;51.080;13.642;2022-10-31T06:10:05;9.30;98.70
74488;DHT22;63019;51.080;13.642;2022-10-31T06:11:08;9.30;98.60
74488;DHT22;63019;51.080;13.642;2022-10-31T06:12:09;9.20;98.50
74488;DHT22;63019;51.080;13.642;2022-10-31T06:13:11;9.20;98.60
74488;DHT22;63019;51.080;13.642;2022-10-31T06:14:13;9.20;98.50
74488;DHT22;63019;51.080;13.642;2022-10-31T06:15:15;9.30;98.40
74488;DHT22;63019;51.080;13.642;2022-10-31T06:16:24;9.30;98.40
74488;DHT22;63019;51.080;13.642;2022-10-31T06:17:25;9.30;98.30
74488;DHT22;63019;51.080;13.642;2022-10-31T06:18:27;9.30;98.30
74488;DHT22;63019;51.080;13.642;2022-10-31T06:19:29;9.30;98.30
74488;DHT22;63019;51.080;13.642;2022-10-31T06:20:31;9.30;98.60
74488;DHT22;63019;51.080;13.642;2022-10-31T06:21:33;9.30;98.40
74488;DHT22;63019;51.080;13.642;2022-10-31T06:22:35;9.30;98.40
74488;DHT22;63019;51.080;13.642;2022-10-31T06:23:36;9.30;98.40
74488;DHT22;63019;51.080;13.642;2022-10-31T06:24:38;9.30;98.50
74488;DHT22;63019;51.080;13.642;2022-10-31T06:25:40;9.30;98.80
74488;DHT22;63019;51.080;13.642;2022-10-31T06:26:42;9.30;98.50
74488;DHT22;63019;51.080;13.642;2022-10-31T06:27:43;9.30;98.50
74488;DHT22;63019;51.080;13.642;2022-10-31T06:28:45;9.30;98.50
74488;DHT22;63019;51.080;13.642;2022-10-31T06:29:47;9.30;98.80
74488;DHT22;63019;51.080;13.642;2022-10-31T06:30:49;9.30;98.60
74488;DHT22;63019;51.080;13.642;2022-10-31T06:31:53;9.30;98.50
74488;DHT22;63019;51.080;13.642;2022-10-31T06:33:02;9.30;98.50
74488;DHT22;63019;51.080;13.642;2022-10-31T06:34:04;9.30;98.60
74488;DHT22;63019;51.080;13.642;2022-10-31T06:35:06;9.30;98.60
74488;DHT22;63019;51.080;13.642;2022-10-31T06:36:08;9.30;98.50
74488;DHT22;63019;51.080;13.642;2022-10-31T06:37:12;9.30;98.50
74488;DHT22;63019;51.080;13.642;2022-10-31T06:38:14;9.30;98.60
74488;DHT22;63019;51.080;13.642;2022-10-31T06:39:16;9.30;98.70
74488;DHT22;63019;51.080;13.642;2022-10-31T06:40:19;9.20;98.60
74488;DHT22;63019;51.080;13.642;2022-10-31T06:41:24;9.30;98.70
74488;DHT22;63019;51.080;13.642;2022-10-31T06:42:26;9.30;98.70
74488;DHT22;63019;51.080;13.642;2022-10-31T06:43:28;9.30;98.70
74488;DHT22;63019;51.080;13.642;2022-10-31T06:44:30;9.30;98.80
74488;DHT22;63019;51.080;13.642;2022-10-31T06:45:32;9.30;98.70
74488;DHT22;63019;51.080;13.642;2022-10-31T06:46:34;9.30;98.70
74488;DHT22;63019;51.080;13.642;2022-10-31T06:47:35;9.30;98.70
74488;DHT22;63019;51.080;13.642;2022-10-31T06:48:57;9.30;98.60
74488;DHT22;63019;51.080;13.642;2022-10-31T06:50:00;9.30;98.70
74488;DHT22;63019;51.080;13.642;2022-10-31T06:51:02;9.30;98.70
74488;DHT22;63019;51.080;13.642;2022-10-31T06:52:05;9.30;98.60
74488;DHT22;63019;51.080;13.642;2022-10-31T06:53:08;9.40;98.70
74488;DHT22;63019;51.080;13.642;2022-10-31T06:54:11;9.40;98.90
74488;DHT22;63019;51.080;13.642;2022-10-31T06:55:12;9.40;98.90
74488;DHT22;63019;51.080;13.642;2022-10-31T06:56:14;9.40;98.80
74488;DHT22;63019;51.080;13.642;2022-10-31T06:57:16;9.40;98.80
74488;DHT22;63019;51.080;13.642;2022-10-31T06:58:18;9.40;98.80
74488;DHT22;63019;51.080;13.642;2022-10-31T06:59:19;9.50;98.90
74488;DHT22;63019;51.080;13.642;2022-10-31T07:00:22;9.50;98.90
74488;DHT22;63019;51.080;13.642;2022-10-31T07:01:24;9.50;99.00
74488;DHT22;63019;51.080;13.642;2022-10-31T07:02:26;9.50;98.90
74488;DHT22;63019;51.080;13.642;2022-10-31T07:03:27;9.50;98.90
74488;DHT22;63019;51.080;13.642;2022-10-31T07:04:29;9.50;98.90
74488;DHT22;63019;51.080;13.642;2022-10-31T07:05:31;9.50;98.90
74488;DHT22;63019;51.080;13.642;2022-10-31T07:06:32;9.60;99.00
74488;DHT22;63019;51.080;13.642;2022-10-31T07:07:34;9.60;98.90
74488;DHT22;63019;51.080;13.642;2022-10-31T07:08:36;9.60;98.90